sensor_id;sensor_type;location;lat;lon;timestamp;temperature;humidity
15115;DHT22;7658;51.456;7.622;2023-02-22T00:01:17;7.10;99.90
15115;DHT22;7658;51.456;7.622;2023-02-22T00:04:12;7.10;99.90
15115;DHT22;7658;51.456;7.622;2023-02-22T00:06:38;7.10;99.90
15115;DHT22;7658;51.456;7.622;2023-02-22T00:09:04;7.10;99.90
15115;DHT22;7658;51.456;7.622;2023-02-22T00:11:33;7.10;99.90
15115;DHT22;7658;51.456;7.622;2023-02-22T00:13:59;7.10;99.90
15115;DHT22;7658;51.456;7.622;2023-02-22T00:16:27;7.10;99.90
15115;DHT22;7658;51.456;7.622;2023-02-22T00:18:53;7.10;99.90
15115;DHT22;7658;51.456;7.622;2023-02-22T00:21:19;7.20;99.90
15115;DHT22;7658;51.456;7.622;2023-02-22T00:23:46;7.10;99.90
15115;DHT22;7658;51.456;7.622;2023-02-22T00:26:22;7.10;99.90
15115;DHT22;7658;51.456;7.622;2023-02-22T00:28:50;7.10;99.90
15115;DHT22;7658;51.456;7.622;2023-02-22T00:31:16;7.10;99.90
15115;DHT22;7658;51.456;7.622;2023-02-22T00:33:43;7.10;99.90
15115;DHT22;7658;51.456;7.622;2023-02-22T00:36:10;7.10;99.90
15115;DHT22;7658;51.456;7.622;2023-02-22T00:38:36;7.10;99.90
15115;DHT22;7658;51.456;7.622;2023-02-22T00:41:02;7.10;99.90
15115;DHT22;7658;51.456;7.622;2023-02-22T00:43:27;7.10;99.90
15115;DHT22;7658;51.456;7.622;2023-02-22T00:45:53;7.10;99.90
15115;DHT22;7658;51.456;7.622;2023-02-22T00:48:19;7.10;99.90
15115;DHT22;7658;51.456;7.622;2023-02-22T00:50:45;7.00;99.90
15115;DHT22;7658;51.456;7.622;2023-02-22T00:53:14;7.00;99.90
15115;DHT22;7658;51.456;7.622;2023-02-22T00:55:40;7.00;99.90
15115;DHT22;7658;51.456;7.622;2023-02-22T00:58:06;7.00;99.90
15115;DHT22;7658;51.456;7.622;2023-02-22T01:00:35;6.80;99.90
15115;DHT22;7658;51.456;7.622;2023-02-22T01:03:02;6.80;99.90
15115;DHT22;7658;51.456;7.622;2023-02-22T01:05:29;6.70;99.90
15115;DHT22;7658;51.456;7.622;2023-02-22T01:07:56;6.70;99.90
15115;DHT22;7658;51.456;7.622;2023-02-22T01:10:25;6.70;99.90
15115;DHT22;7658;51.456;7.622;2023-02-22T01:12:51;6.60;99.90
15115;DHT22;7658;51.456;7.622;2023-02-22T01:15:27;6.60;99.90
15115;DHT22;7658;51.456;7.622;2023-02-22T01:17:56;6.50;99.90
15115;DHT22;7658;51.456;7.622;2023-02-22T01:20:23;6.50;99.90
15115;DHT22;7658;51.456;7.622;2023-02-22T01:22:52;6.40;99.90
15115;DHT22;7658;51.456;7.622;2023-02-22T01:25:20;6.30;99.90
15115;DHT22;7658;51.456;7.622;2023-02-22T01:27:47;6.30;99.90
15115;DHT22;7658;51.456;7.622;2023-02-22T01:30:17;6.20;99.90
15115;DHT22;7658;51.456;7.622;2023-02-22T01:32:44;6.20;99.90
15115;DHT22;7658;51.456;7.622;2023-02-22T01:35:16;6.20;99.90
15115;DHT22;7658;51.456;7.622;2023-02-22T01:37:43;6.10;99.90
15115;DHT22;7658;51.456;7.622;2023-02-22T01:40:15;6.10;99.90
15115;DHT22;7658;51.456;7.622;2023-02-22T01:42:41;6.00;99.90
15115;DHT22;7658;51.456;7.622;2023-02-22T01:47:59;6.00;99.90
15115;DHT22;7658;51.456;7.622;2023-02-22T01:50:27;5.90;99.90
15115;DHT22;7658;51.456;7.622;2023-02-22T01:52:53;6.00;99.90
15115;DHT22;7658;51.456;7.622;2023-02-22T01:55:19;6.00;99.90
15115;DHT22;7658;51.456;7.622;2023-02-22T01:57:47;6.00;99.90
15115;DHT22;7658;51.456;7.622;2023-02-22T02:00:15;6.00;99.90
15115;DHT22;7658;51.456;7.622;2023-02-22T02:02:48;6.00;99.90
15115;DHT22;7658;51.456;7.622;2023-02-22T02:05:15;6.00;99.90
15115;DHT22;7658;51.456;7.622;2023-02-22T02:07:41;6.00;99.90
15115;DHT22;7658;51.456;7.622;2023-02-22T02:10:13;6.00;99.90
15115;DHT22;7658;51.456;7.622;2023-02-22T02:12:43;6.00;99.90
15115;DHT22;7658;51.456;7.622;2023-02-22T02:15:24;6.00;99.90
15115;DHT22;7658;51.456;7.622;2023-02-22T02:17:52;6.00;99.90
15115;DHT22;7658;51.456;7.622;2023-02-22T02:20:23;5.90;99.90
15115;DHT22;7658;51.456;7.622;2023-02-22T02:28:09;5.80;99.90
15115;DHT22;7658;51.456;7.622;2023-02-22T02:31:12;5.80;99.90
15115;DHT22;7658;51.456;7.622;2023-02-22T02:33:49;5.80;99.90
15115;DHT22;7658;51.456;7.622;2023-02-22T02:39:28;5.80;99.90
15115;DHT22;7658;51.456;7.622;2023-02-22T02:41:57;5.70;99.90
15115;DHT22;7658;51.456;7.622;2023-02-22T02:44:48;5.70;99.90
15115;DHT22;7658;51.456;7.622;2023-02-22T02:47:27;5.70;99.90
15115;DHT22;7658;51.456;7.622;2023-02-22T02:52:26;5.60;99.90
15115;DHT22;7658;51.456;7.622;2023-02-22T02:54:53;5.60;99.90
15115;DHT22;7658;51.456;7.622;2023-02-22T02:57:20;5.60;99.90
15115;DHT22;7658;51.456;7.622;2023-02-22T02:59:46;5.50;99.90
15115;DHT22;7658;51.456;7.622;2023-02-22T03:05:10;5.30;99.90
15115;DHT22;7658;51.456;7.622;2023-02-22T03:16:48;5.10;99.90
15115;DHT22;7658;51.456;7.622;2023-02-22T03:19:34;5.10;99.90
15115;DHT22;7658;51.456;7.622;2023-02-22T03:22:09;5.10;99.90
15115;DHT22;7658;51.456;7.622;2023-02-22T03:24:44;5.10;99.90
15115;DHT22;7658;51.456;7.622;2023-02-22T03:27:19;5.10;99.90
15115;DHT22;7658;51.456;7.622;2023-02-22T03:29:47;5.00;99.90
15115;DHT22;7658;51.456;7.622;2023-02-22T03:32:22;5.00;99.90
15115;DHT22;7658;51.456;7.622;2023-02-22T03:34:53;5.00;99.90
15115;DHT22;7658;51.456;7.622;2023-02-22T03:37:31;4.90;99.90
15115;DHT22;7658;51.456;7.622;2023-02-22T03:39:59;4.90;99.90
15115;DHT22;7658;51.456;7.622;2023-02-22T03:42:32;4.90;99.90
15115;DHT22;7658;51.456;7.622;2023-02-22T03:45:01;4.90;99.90
15115;DHT22;7658;51.456;7.622;2023-02-22T03:47:41;4.90;99.90
15115;DHT22;7658;51.456;7.622;2023-02-22T03:50:28;4.80;99.90
15115;DHT22;7658;51.456;7.622;2023-02-22T03:52:56;4.70;99.90
15115;DHT22;7658;51.456;7.622;2023-02-22T03:55:25;4.70;99.90
15115;DHT22;7658;51.456;7.622;2023-02-22T03:57:58;4.70;99.90
15115;DHT22;7658;51.456;7.622;2023-02-22T04:00:27;4.70;99.90
15115;DHT22;7658;51.456;7.622;2023-02-22T04:02:54;4.60;99.90
15115;DHT22;7658;51.456;7.622;2023-02-22T04:05:20;4.40;99.90
15115;DHT22;7658;51.456;7.622;2023-02-22T04:07:45;4.40;99.90
15115;DHT22;7658;51.456;7.622;2023-02-22T04:10:12;4.40;99.90
15115;DHT22;7658;51.456;7.622;2023-02-22T04:12:38;4.30;99.90
15115;DHT22;7658;51.456;7.622;2023-02-22T04:15:05;4.20;99.90
15115;DHT22;7658;51.456;7.622;2023-02-22T04:17:31;4.20;99.90
15115;DHT22;7658;51.456;7.622;2023-02-22T04:19:58;4.20;99.90
15115;DHT22;7658;51.456;7.622;2023-02-22T04:22:23;4.20;99.90
15115;DHT22;7658;51.456;7.622;2023-02-22T04:24:49;4.20;99.90
15115;DHT22;7658;51.456;7.622;2023-02-22T04:27:15;4.10;99.90
15115;DHT22;7658;51.456;7.622;2023-02-22T04:29:41;4.00;99.90
15115;DHT22;7658;51.456;7.622;2023-02-22T04:32:07;3.80;99.90
15115;DHT22;7658;51.456;7.622;2023-02-22T04:34:32;3.80;99.90
15115;DHT22;7658;51.456;7.622;2023-02-22T04:36:58;3.70;99.90
15115;DHT22;7658;51.456;7.622;2023-02-22T04:39:24;3.80;99.90
15115;DHT22;7658;51.456;7.622;2023-02-22T04:41:50;3.80;99.90
15115;DHT22;7658;51.456;7.622;2023-02-22T04:44:16;3.80;99.90
15115;DHT22;7658;51.456;7.622;2023-02-22T04:46:41;3.90;99.90
15115;DHT22;7658;51.456;7.622;2023-02-22T04:49:07;3.80;99.90
15115;DHT22;7658;51.456;7.622;2023-02-22T04:51:33;3.70;99.90
15115;DHT22;7658;51.456;7.622;2023-02-22T04:54:01;3.80;99.90
15115;DHT22;7658;51.456;7.622;2023-02-22T04:56:27;3.80;99.90
15115;DHT22;7658;51.456;7.622;2023-02-22T04:58:53;3.70;99.90
15115;DHT22;7658;51.456;7.622;2023-02-22T05:01:18;3.70;99.90
15115;DHT22;7658;51.456;7.622;2023-02-22T05:03:44;3.70;99.90
15115;DHT22;7658;51.456;7.622;2023-02-22T05:06:10;3.70;99.90
15115;DHT22;7658;51.456;7.622;2023-02-22T05:08:37;3.80;99.90
15115;DHT22;7658;51.456;7.622;2023-02-22T05:11:03;3.70;99.90
15115;DHT22;7658;51.456;7.622;2023-02-22T05:13:30;3.70;99.90
15115;DHT22;7658;51.456;7.622;2023-02-22T05:15:55;3.80;99.90
15115;DHT22;7658;51.456;7.622;2023-02-22T05:18:21;3.70;99.90
15115;DHT22;7658;51.456;7.622;2023-02-22T05:20:47;3.70;99.90
15115;DHT22;7658;51.456;7.622;2023-02-22T05:23:12;3.70;99.90
15115;DHT22;7658;51.456;7.622;2023-02-22T05:25:38;3.70;99.90
15115;DHT22;7658;51.456;7.622;2023-02-22T05:28:09;3.70;99.90
15115;DHT22;7658;51.456;7.622;2023-02-22T05:30:36;3.70;99.90
15115;DHT22;7658;51.456;7.622;2023-02-22T05:33:04;3.70;99.90
15115;DHT22;7658;51.456;7.622;2023-02-22T05:35:30;3.60;99.90
15115;DHT22;7658;51.456;7.622;2023-02-22T05:37:56;3.50;99.90
15115;DHT22;7658;51.456;7.622;2023-02-22T05:40:24;3.50;99.90
15115;DHT22;7658;51.456;7.622;2023-02-22T05:42:51;3.50;99.90
15115;DHT22;7658;51.456;7.622;2023-02-22T05:45:19;3.60;99.90
15115;DHT22;7658;51.456;7.622;2023-02-22T05:47:45;3.50;99.90
15115;DHT22;7658;51.456;7.622;2023-02-22T05:50:12;3.50;99.90
15115;DHT22;7658;51.456;7.622;2023-02-22T05:52:38;3.50;99.90
15115;DHT22;7658;51.456;7.622;2023-02-22T05:55:05;3.40;99.90
15115;DHT22;7658;51.456;7.622;2023-02-22T05:57:31;3.30;99.90
15115;DHT22;7658;51.456;7.622;2023-02-22T05:59:57;3.20;99.90
15115;DHT22;7658;51.456;7.622;2023-02-22T06:02:22;3.20;99.90
15115;DHT22;7658;51.456;7.622;2023-02-22T06:04:48;3.20;99.90
15115;DHT22;7658;51.456;7.622;2023-02-22T06:07:14;3.30;99.90
15115;DHT22;7658;51.456;7.622;2023-02-22T06:09:40;3.20;99.90
15115;DHT22;7658;51.456;7.622;2023-02-22T06:12:07;3.20;99.90
15115;DHT22;7658;51.456;7.622;2023-02-22T06:14:33;3.20;99.90
15115;DHT22;7658;51.456;7.622;2023-02-22T06:16:59;3.10;99.90
15115;DHT22;7658;51.456;7.622;2023-02-22T06:19:25;2.90;99.90
15115;DHT22;7658;51.456;7.622;2023-02-22T06:21:55;2.70;99.90
15115;DHT22;7658;51.456;7.622;2023-02-22T06:24:22;2.50;99.90
15115;DHT22;7658;51.456;7.622;2023-02-22T06:26:59;2.50;99.90
15115;DHT22;7658;51.456;7.622;2023-02-22T06:29:26;2.50;99.90
15115;DHT22;7658;51.456;7.622;2023-02-22T06:31:52;2.40;99.90
15115;DHT22;7658;51.456;7.622;2023-02-22T06:34:18;2.30;99.90
15115;DHT22;7658;51.456;7.622;2023-02-22T06:36:44;2.30;99.90
15115;DHT22;7658;51.456;7.622;2023-02-22T06:39:13;2.40;99.90
15115;DHT22;7658;51.456;7.622;2023-02-22T06:41:41;2.40;99.90
15115;DHT22;7658;51.456;7.622;2023-02-22T06:44:07;2.50;99.90
15115;DHT22;7658;51.456;7.622;2023-02-22T06:46:34;2.50;99.90
15115;DHT22;7658;51.456;7.622;2023-02-22T06:49:00;2.30;99.90
15115;DHT22;7658;51.456;7.622;2023-02-22T06:51:26;2.30;99.90
15115;DHT22;7658;51.456;7.622;2023-02-22T06:53:52;2.30;99.90
15115;DHT22;7658;51.456;7.622;2023-02-22T06:56:19;2.40;99.90
15115;DHT22;7658;51.456;7.622;2023-02-22T06:58:45;2.50;99.90
15115;DHT22;7658;51.456;7.622;2023-02-22T07:01:11;2.50;99.90
15115;DHT22;7658;51.456;7.622;2023-02-22T07:03:37;2.60;99.90
15115;DHT22;7658;51.456;7.622;2023-02-22T07:06:03;2.60;99.90
15115;DHT22;7658;51.456;7.622;2023-02-22T07:08:30;2.70;99.90
15115;DHT22;7658;51.456;7.622;2023-02-22T07:10:56;2.70;99.90
15115;DHT22;7658;51.456;7.622;2023-02-22T07:13:22;2.70;99.90
15115;DHT22;7658;51.456;7.622;2023-02-22T07:15:48;2.80;99.90
15115;DHT22;7658;51.456;7.622;2023-02-22T07:18:14;2.70;99.90
15115;DHT22;7658;51.456;7.622;2023-02-22T07:20:41;2.80;99.90
15115;DHT22;7658;51.456;7.622;2023-02-22T07:23:07;2.80;99.90
15115;DHT22;7658;51.456;7.622;2023-02-22T07:25:35;2.90;99.90
15115;DHT22;7658;51.456;7.622;2023-02-22T07:28:02;2.90;99.90
15115;DHT22;7658;51.456;7.622;2023-02-22T07:30:30;2.90;99.90
15115;DHT22;7658;51.456;7.622;2023-02-22T07:33:10;3.00;99.90
15115;DHT22;7658;51.456;7.622;2023-02-22T07:35:43;3.10;99.90
15115;DHT22;7658;51.456;7.622;2023-02-22T07:38:10;3.20;99.90
15115;DHT22;7658;51.456;7.622;2023-02-22T07:40:44;3.20;99.90
15115;DHT22;7658;51.456;7.622;2023-02-22T07:43:21;3.30;99.90
15115;DHT22;7658;51.456;7.622;2023-02-22T07:45:52;3.40;99.90
15115;DHT22;7658;51.456;7.622;2023-02-22T07:48:28;3.50;99.90
15115;DHT22;7658;51.456;7.622;2023-02-22T07:50:56;3.50;99.90
15115;DHT22;7658;51.456;7.622;2023-02-22T07:53:28;3.60;99.90
15115;DHT22;7658;51.456;7.622;2023-02-22T07:56:01;3.70;99.90
15115;DHT22;7658;51.456;7.622;2023-02-22T07:58:30;3.90;99.90
15115;DHT22;7658;51.456;7.622;2023-02-22T08:01:03;3.90;99.90
15115;DHT22;7658;51.456;7.622;2023-02-22T08:03:32;4.10;99.90
15115;DHT22;7658;51.456;7.622;2023-02-22T08:06:01;4.20;99.90
15115;DHT22;7658;51.456;7.622;2023-02-22T08:08:33;4.20;99.90
15115;DHT22;7658;51.456;7.622;2023-02-22T08:11:02;4.30;99.90
15115;DHT22;7658;51.456;7.622;2023-02-22T08:13:31;4.30;99.90
15115;DHT22;7658;51.456;7.622;2023-02-22T08:16:09;4.50;99.90
15115;DHT22;7658;51.456;7.622;2023-02-22T08:18:47;4.50;99.90
15115;DHT22;7658;51.456;7.622;2023-02-22T08:21:15;4.50;99.90
15115;DHT22;7658;51.456;7.622;2023-02-22T08:23:42;4.60;99.90
15115;DHT22;7658;51.456;7.622;2023-02-22T08:26:11;4.70;99.90
15115;DHT22;7658;51.456;7.622;2023-02-22T08:28:42;4.80;99.90
15115;DHT22;7658;51.456;7.622;2023-02-22T08:31:08;4.90;99.90
15115;DHT22;7658;51.456;7.622;2023-02-22T08:33:37;5.00;99.90
15115;DHT22;7658;51.456;7.622;2023-02-22T08:36:06;5.10;99.90
15115;DHT22;7658;51.456;7.622;2023-02-22T08:38:32;5.20;99.90
15115;DHT22;7658;51.456;7.622;2023-02-22T08:40:59;5.40;99.90
15115;DHT22;7658;51.456;7.622;2023-02-22T08:43:25;5.50;99.90
15115;DHT22;7658;51.456;7.622;2023-02-22T08:45:53;5.60;99.90
15115;DHT22;7658;51.456;7.622;2023-02-22T08:48:19;5.70;99.90
15115;DHT22;7658;51.456;7.622;2023-02-22T08:50:44;5.90;99.90
15115;DHT22;7658;51.456;7.622;2023-02-22T08:53:13;6.10;99.90
15115;DHT22;7658;51.456;7.622;2023-02-22T08:55:39;6.20;99.90
15115;DHT22;7658;51.456;7.622;2023-02-22T08:58:06;6.30;99.90
15115;DHT22;7658;51.456;7.622;2023-02-22T09:00:35;6.50;99.90
15115;DHT22;7658;51.456;7.622;2023-02-22T09:03:05;6.70;99.90
15115;DHT22;7658;51.456;7.622;2023-02-22T09:05:31;6.80;99.90
15115;DHT22;7658;51.456;7.622;2023-02-22T09:07:57;7.00;99.90
15115;DHT22;7658;51.456;7.622;2023-02-22T09:10:26;7.10;99.90
15115;DHT22;7658;51.456;7.622;2023-02-22T09:12:52;7.20;99.90
15115;DHT22;7658;51.456;7.622;2023-02-22T09:15:22;7.30;99.90
15115;DHT22;7658;51.456;7.622;2023-02-22T09:17:48;7.40;99.90
15115;DHT22;7658;51.456;7.622;2023-02-22T09:20:16;7.50;99.90
15115;DHT22;7658;51.456;7.622;2023-02-22T09:22:44;7.60;99.90
15115;DHT22;7658;51.456;7.622;2023-02-22T09:25:11;7.70;99.90
15115;DHT22;7658;51.456;7.622;2023-02-22T09:27:36;7.90;99.90
15115;DHT22;7658;51.456;7.622;2023-02-22T09:30:05;8.00;99.90
15115;DHT22;7658;51.456;7.622;2023-02-22T09:32:31;8.20;99.90
15115;DHT22;7658;51.456;7.622;2023-02-22T09:34:56;8.30;99.90
15115;DHT22;7658;51.456;7.622;2023-02-22T09:37:22;8.40;99.90
15115;DHT22;7658;51.456;7.622;2023-02-22T09:39:48;8.50;99.90
15115;DHT22;7658;51.456;7.622;2023-02-22T09:42:34;8.60;99.90
15115;DHT22;7658;51.456;7.622;2023-02-22T09:45:21;8.60;99.90
15115;DHT22;7658;51.456;7.622;2023-02-22T09:47:56;8.80;99.90
15115;DHT22;7658;51.456;7.622;2023-02-22T09:50:29;8.90;99.90
15115;DHT22;7658;51.456;7.622;2023-02-22T09:53:07;9.00;99.90
15115;DHT22;7658;51.456;7.622;2023-02-22T09:55:42;9.10;99.90
15115;DHT22;7658;51.456;7.622;2023-02-22T10:01:32;9.40;99.90
15115;DHT22;7658;51.456;7.622;2023-02-22T10:04:12;9.60;99.90
15115;DHT22;7658;51.456;7.622;2023-02-22T10:09:32;9.90;99.90
15115;DHT22;7658;51.456;7.622;2023-02-22T10:12:04;10.00;99.90
15115;DHT22;7658;51.456;7.622;2023-02-22T10:15:01;10.10;99.90
15115;DHT22;7658;51.456;7.622;2023-02-22T10:23:26;10.50;99.90
15115;DHT22;7658;51.456;7.622;2023-02-22T10:28:53;10.70;99.90
15115;DHT22;7658;51.456;7.622;2023-02-22T10:31:30;10.80;99.90
15115;DHT22;7658;51.456;7.622;2023-02-22T10:34:16;11.00;99.90
15115;DHT22;7658;51.456;7.622;2023-02-22T10:36:47;11.10;99.90
15115;DHT22;7658;51.456;7.622;2023-02-22T10:39:24;11.20;99.90
15115;DHT22;7658;51.456;7.622;2023-02-22T10:41:55;11.40;99.90
15115;DHT22;7658;51.456;7.622;2023-02-22T10:44:21;11.50;99.90
15115;DHT22;7658;51.456;7.622;2023-02-22T10:46:47;11.60;99.90
15115;DHT22;7658;51.456;7.622;2023-02-22T10:49:19;11.70;99.90
15115;DHT22;7658;51.456;7.622;2023-02-22T10:51:58;11.80;99.90
15115;DHT22;7658;51.456;7.622;2023-02-22T10:54:35;11.80;99.90
15115;DHT22;7658;51.456;7.622;2023-02-22T10:57:03;12.00;99.90
15115;DHT22;7658;51.456;7.622;2023-02-22T10:59:37;12.10;99.90
15115;DHT22;7658;51.456;7.622;2023-02-22T11:02:26;12.20;99.90
15115;DHT22;7658;51.456;7.622;2023-02-22T11:04:54;12.30;99.90
15115;DHT22;7658;51.456;7.622;2023-02-22T11:07:25;12.30;99.90
15115;DHT22;7658;51.456;7.622;2023-02-22T11:10:05;12.50;99.90
15115;DHT22;7658;51.456;7.622;2023-02-22T11:12:38;12.60;99.90
15115;DHT22;7658;51.456;7.622;2023-02-22T11:17:45;12.80;99.90
15115;DHT22;7658;51.456;7.622;2023-02-22T11:20:26;12.90;99.90
15115;DHT22;7658;51.456;7.622;2023-02-22T11:22:54;12.90;99.90
15115;DHT22;7658;51.456;7.622;2023-02-22T11:25:25;12.90;99.90
15115;DHT22;7658;51.456;7.622;2023-02-22T11:27:52;12.90;99.90
15115;DHT22;7658;51.456;7.622;2023-02-22T11:30:25;13.00;99.90
15115;DHT22;7658;51.456;7.622;2023-02-22T11:35:36;13.30;99.90
15115;DHT22;7658;51.456;7.622;2023-02-22T11:38:28;13.50;99.90
15115;DHT22;7658;51.456;7.622;2023-02-22T11:41:15;13.60;99.90
15115;DHT22;7658;51.456;7.622;2023-02-22T11:43:42;13.70;99.90
15115;DHT22;7658;51.456;7.622;2023-02-22T11:46:22;13.80;99.90
15115;DHT22;7658;51.456;7.622;2023-02-22T11:49:05;13.90;99.90
15115;DHT22;7658;51.456;7.622;2023-02-22T11:52:35;14.00;99.90
15115;DHT22;7658;51.456;7.622;2023-02-22T12:00:26;14.20;99.90
15115;DHT22;7658;51.456;7.622;2023-02-22T12:12:49;14.60;99.90
15115;DHT22;7658;51.456;7.622;2023-02-22T12:20:24;15.20;99.90
15115;DHT22;7658;51.456;7.622;2023-02-22T12:23:42;15.30;99.90
15115;DHT22;7658;51.456;7.622;2023-02-22T12:26:04;15.40;99.90
15115;DHT22;7658;51.456;7.622;2023-02-22T12:28:46;15.50;99.90
15115;DHT22;7658;51.456;7.622;2023-02-22T12:31:22;15.50;99.90
15115;DHT22;7658;51.456;7.622;2023-02-22T12:36:47;15.60;99.90
15115;DHT22;7658;51.456;7.622;2023-02-22T12:41:55;15.50;99.90
15115;DHT22;7658;51.456;7.622;2023-02-22T12:44:31;15.60;99.90
15115;DHT22;7658;51.456;7.622;2023-02-22T12:46:58;15.70;99.90
15115;DHT22;7658;51.456;7.622;2023-02-22T12:52:20;15.70;99.90
15115;DHT22;7658;51.456;7.622;2023-02-22T12:55:13;15.40;99.90
15115;DHT22;7658;51.456;7.622;2023-02-22T13:03:44;15.50;99.90
15115;DHT22;7658;51.456;7.622;2023-02-22T13:09:21;15.50;99.90
15115;DHT22;7658;51.456;7.622;2023-02-22T13:12:18;15.40;99.90
15115;DHT22;7658;51.456;7.622;2023-02-22T13:14:50;15.60;99.90
15115;DHT22;7658;51.456;7.622;2023-02-22T13:17:42;15.60;99.90
15115;DHT22;7658;51.456;7.622;2023-02-22T13:23:09;16.10;99.90
15115;DHT22;7658;51.456;7.622;2023-02-22T13:25:43;15.90;99.90
15115;DHT22;7658;51.456;7.622;2023-02-22T13:29:04;16.00;99.90
15115;DHT22;7658;51.456;7.622;2023-02-22T13:46:45;16.10;99.90
15115;DHT22;7658;51.456;7.622;2023-02-22T13:52:07;15.80;99.90
15115;DHT22;7658;51.456;7.622;2023-02-22T13:54:56;15.70;99.90
15115;DHT22;7658;51.456;7.622;2023-02-22T13:57:38;15.60;99.90
15115;DHT22;7658;51.456;7.622;2023-02-22T14:00:17;15.50;99.90
15115;DHT22;7658;51.456;7.622;2023-02-22T14:03:05;15.40;99.90
15115;DHT22;7658;51.456;7.622;2023-02-22T14:05:46;15.40;99.90
15115;DHT22;7658;51.456;7.622;2023-02-22T14:10:52;15.40;99.90
15115;DHT22;7658;51.456;7.622;2023-02-22T14:13:23;15.50;99.90
15115;DHT22;7658;51.456;7.622;2023-02-22T14:18:45;15.40;99.90
15115;DHT22;7658;51.456;7.622;2023-02-22T14:21:13;15.40;99.90
15115;DHT22;7658;51.456;7.622;2023-02-22T14:23:44;15.40;99.90
15115;DHT22;7658;51.456;7.622;2023-02-22T14:28:54;15.30;99.90
15115;DHT22;7658;51.456;7.622;2023-02-22T14:31:27;15.20;99.90
15115;DHT22;7658;51.456;7.622;2023-02-22T14:36:35;15.00;99.90
15115;DHT22;7658;51.456;7.622;2023-02-22T14:39:17;14.80;99.90
15115;DHT22;7658;51.456;7.622;2023-02-22T14:41:59;14.80;99.90
15115;DHT22;7658;51.456;7.622;2023-02-22T14:44:33;14.80;99.90
15115;DHT22;7658;51.456;7.622;2023-02-22T14:47:03;14.80;99.90
15115;DHT22;7658;51.456;7.622;2023-02-22T14:49:34;14.70;99.90
15115;DHT22;7658;51.456;7.622;2023-02-22T14:52:12;14.70;99.90
15115;DHT22;7658;51.456;7.622;2023-02-22T14:54:58;14.60;99.90
15115;DHT22;7658;51.456;7.622;2023-02-22T14:57:46;14.60;99.90
15115;DHT22;7658;51.456;7.622;2023-02-22T15:00:18;14.60;99.90
15115;DHT22;7658;51.456;7.622;2023-02-22T15:02:56;14.50;99.90
15115;DHT22;7658;51.456;7.622;2023-02-22T15:05:27;14.40;99.90
15115;DHT22;7658;51.456;7.622;2023-02-22T15:08:06;14.40;99.90
15115;DHT22;7658;51.456;7.622;2023-02-22T15:13:03;14.40;99.90
15115;DHT22;7658;51.456;7.622;2023-02-22T15:15:43;14.40;99.90
15115;DHT22;7658;51.456;7.622;2023-02-22T15:18:39;14.30;99.90
15115;DHT22;7658;51.456;7.622;2023-02-22T15:21:16;14.30;99.90
15115;DHT22;7658;51.456;7.622;2023-02-22T15:23:44;14.30;99.90
15115;DHT22;7658;51.456;7.622;2023-02-22T15:28:57;14.20;99.90
15115;DHT22;7658;51.456;7.622;2023-02-22T15:31:32;14.10;99.90
15115;DHT22;7658;51.456;7.622;2023-02-22T15:34:20;14.10;99.90
15115;DHT22;7658;51.456;7.622;2023-02-22T15:36:50;14.00;99.90
15115;DHT22;7658;51.456;7.622;2023-02-22T15:39:30;13.90;99.90
15115;DHT22;7658;51.456;7.622;2023-02-22T15:42:08;13.90;99.90
15115;DHT22;7658;51.456;7.622;2023-02-22T15:44:39;13.80;99.90
15115;DHT22;7658;51.456;7.622;2023-02-22T15:47:15;13.70;99.90
15115;DHT22;7658;51.456;7.622;2023-02-22T15:49:42;13.70;99.90
15115;DHT22;7658;51.456;7.622;2023-02-22T15:54:47;13.70;99.90
15115;DHT22;7658;51.456;7.622;2023-02-22T15:57:19;13.70;99.90
15115;DHT22;7658;51.456;7.622;2023-02-22T15:59:49;13.70;99.90
15115;DHT22;7658;51.456;7.622;2023-02-22T16:02:38;13.60;99.90
15115;DHT22;7658;51.456;7.622;2023-02-22T16:05:11;13.60;99.90
15115;DHT22;7658;51.456;7.622;2023-02-22T16:07:40;13.50;99.90
15115;DHT22;7658;51.456;7.622;2023-02-22T16:10:30;13.50;99.90
15115;DHT22;7658;51.456;7.622;2023-02-22T16:13:08;13.50;99.90
15115;DHT22;7658;51.456;7.622;2023-02-22T16:18:36;13.30;99.90
15115;DHT22;7658;51.456;7.622;2023-02-22T16:21:16;13.30;99.90
15115;DHT22;7658;51.456;7.622;2023-02-22T16:23:49;13.20;99.90
15115;DHT22;7658;51.456;7.622;2023-02-22T16:26:31;13.10;99.90
15115;DHT22;7658;51.456;7.622;2023-02-22T16:29:01;13.00;99.90
15115;DHT22;7658;51.456;7.622;2023-02-22T16:31:30;13.00;99.90
15115;DHT22;7658;51.456;7.622;2023-02-22T16:33:59;12.90;99.90
15115;DHT22;7658;51.456;7.622;2023-02-22T16:36:44;12.90;99.90
15115;DHT22;7658;51.456;7.622;2023-02-22T16:39:21;12.80;99.90
15115;DHT22;7658;51.456;7.622;2023-02-22T16:41:49;12.70;99.90
15115;DHT22;7658;51.456;7.622;2023-02-22T16:44:16;12.60;99.90
15115;DHT22;7658;51.456;7.622;2023-02-22T16:46:42;12.50;99.90
15115;DHT22;7658;51.456;7.622;2023-02-22T16:49:12;12.40;99.90
15115;DHT22;7658;51.456;7.622;2023-02-22T16:51:58;12.40;99.90
15115;DHT22;7658;51.456;7.622;2023-02-22T16:54:29;12.30;99.90
15115;DHT22;7658;51.456;7.622;2023-02-22T16:57:00;12.20;99.90
15115;DHT22;7658;51.456;7.622;2023-02-22T16:59:27;12.20;99.90
15115;DHT22;7658;51.456;7.622;2023-02-22T17:01:52;12.20;99.90
15115;DHT22;7658;51.456;7.622;2023-02-22T17:04:21;12.10;99.90
15115;DHT22;7658;51.456;7.622;2023-02-22T17:06:49;12.10;99.90
15115;DHT22;7658;51.456;7.622;2023-02-22T17:09:15;12.00;99.90
15115;DHT22;7658;51.456;7.622;2023-02-22T17:11:41;11.90;99.90
15115;DHT22;7658;51.456;7.622;2023-02-22T17:14:08;11.90;99.90
15115;DHT22;7658;51.456;7.622;2023-02-22T17:16:34;11.80;99.90
15115;DHT22;7658;51.456;7.622;2023-02-22T17:19:00;11.80;99.90
15115;DHT22;7658;51.456;7.622;2023-02-22T17:21:29;11.80;99.90
15115;DHT22;7658;51.456;7.622;2023-02-22T17:23:55;11.70;99.90
15115;DHT22;7658;51.456;7.622;2023-02-22T17:26:21;11.70;99.90
15115;DHT22;7658;51.456;7.622;2023-02-22T17:28:47;11.70;99.90
15115;DHT22;7658;51.456;7.622;2023-02-22T17:31:22;11.60;99.90
15115;DHT22;7658;51.456;7.622;2023-02-22T17:33:49;11.60;99.90
15115;DHT22;7658;51.456;7.622;2023-02-22T17:36:16;11.50;99.90
15115;DHT22;7658;51.456;7.622;2023-02-22T17:38:41;11.50;99.90
15115;DHT22;7658;51.456;7.622;2023-02-22T17:41:07;11.40;99.90
15115;DHT22;7658;51.456;7.622;2023-02-22T17:43:33;11.40;99.90
15115;DHT22;7658;51.456;7.622;2023-02-22T17:45:59;11.30;99.90
15115;DHT22;7658;51.456;7.622;2023-02-22T17:48:32;11.20;99.90
15115;DHT22;7658;51.456;7.622;2023-02-22T17:50:58;11.10;99.90
15115;DHT22;7658;51.456;7.622;2023-02-22T17:53:28;11.10;99.90
15115;DHT22;7658;51.456;7.622;2023-02-22T17:55:54;11.00;99.90
15115;DHT22;7658;51.456;7.622;2023-02-22T17:58:20;11.00;99.90
15115;DHT22;7658;51.456;7.622;2023-02-22T18:00:49;10.90;99.90
15115;DHT22;7658;51.456;7.622;2023-02-22T18:03:18;10.80;99.90
15115;DHT22;7658;51.456;7.622;2023-02-22T18:05:50;10.70;99.90
15115;DHT22;7658;51.456;7.622;2023-02-22T18:08:18;10.70;99.90
15115;DHT22;7658;51.456;7.622;2023-02-22T18:10:45;10.60;99.90
15115;DHT22;7658;51.456;7.622;2023-02-22T18:13:15;10.60;99.90
15115;DHT22;7658;51.456;7.622;2023-02-22T18:15:43;10.50;99.90
15115;DHT22;7658;51.456;7.622;2023-02-22T18:18:09;10.50;99.90
15115;DHT22;7658;51.456;7.622;2023-02-22T18:20:35;10.40;99.90
15115;DHT22;7658;51.456;7.622;2023-02-22T18:23:09;10.40;99.90
15115;DHT22;7658;51.456;7.622;2023-02-22T18:25:36;10.30;99.90